Time;durP1;ratioP1;P1;durP2;ratioP2;P2;SDS_P1;SDS_P2;PMS_P1;PMS_P2;Temp;Humidity;BMP_temperature;BMP_pressure;BME280_temperature;BME280_humidity;BME280_pressure;Samples;Min_cycle;Max_cycle;Signal;HPM_P1;HPM_P2
2023/11/15 08:44:33;;;;;;;7.20;1.30;;;11.30;99.90;;;;;;4930638;23;20233;-76
2023/11/15 08:47:00;;;;;;;2.57;0.53;;;11.40;99.90;;;;;;4918628;29;20248;-75
2023/11/15 08:49:28;;;;;;;7.73;0.77;;;11.30;99.90;;;;;;4918950;29;20216;-75
2023/11/15 08:51:57;;;;;;;9.33;1.10;;;11.50;99.90;;;;;;4908263;29;20705;-75
2023/11/15 08:54:24;;;;;;;4.43;1.03;;;11.60;99.90;;;;;;4900359;29;20626;-76
2023/11/15 08:56:51;;;;;;;7.40;1.30;;;11.60;99.90;;;;;;4899948;29;20306;-76
2023/11/15 08:59:19;;;;;;;8.47;1.30;;;11.50;99.90;;;;;;4900118;29;20218;-76
2023/11/15 09:01:47;;;;;;;2.83;0.77;;;11.50;99.90;;;;;;4899618;29;20265;-74
2023/11/15 09:04:16;;;;;;;5.70;0.77;;;11.60;99.90;;;;;;4899976;29;20293;-75
2023/11/15 09:06:44;;;;;;;8.70;0.93;;;11.50;99.90;;;;;;4899734;29;20270;-74
2023/11/15 09:09:14;;;;;;;3.90;1.10;;;11.50;99.90;;;;;;4899526;29;20748;-74
2023/11/15 09:11:42;;;;;;;2.27;0.53;;;11.50;99.90;;;;;;4899387;29;20249;-84
2023/11/15 09:14:10;;;;;;;5.40;0.80;;;11.60;99.90;;;;;;4899811;29;20206;-74
2023/11/15 09:16:38;;;;;;;3.50;0.53;;;11.60;99.90;;;;;;4898811;29;20215;-74
2023/11/15 09:19:07;;;;;;;5.20;0.80;;;11.70;99.90;;;;;;4895003;29;20669;-75
2023/11/15 09:21:34;;;;;;;8.50;1.10;;;11.80;99.90;;;;;;4897944;29;20286;-74
2023/11/15 09:24:01;;;;;;;4.43;0.50;;;11.70;99.90;;;;;;4898414;29;20242;-76
2023/11/15 09:26:29;;;;;;;7.23;2.17;;;11.80;99.90;;;;;;4893254;29;20244;-76
2023/11/15 09:28:57;;;;;;;7.13;0.93;;;11.90;99.90;;;;;;4891867;29;20214;-74
2023/11/15 09:31:24;;;;;;;5.93;1.30;;;12.10;99.90;;;;;;4895512;29;20227;-75
2023/11/15 09:33:51;;;;;;;1.83;0.50;;;12.10;99.90;;;;;;4890753;29;20669;-74
2023/11/15 09:36:20;;;;;;;8.10;1.20;;;12.20;99.90;;;;;;4897341;29;20246;-74
2023/11/15 09:38:47;;;;;;;5.57;0.60;;;12.30;99.90;;;;;;4897296;29;20313;-72
2023/11/15 09:41:17;;;;;;;3.83;0.73;;;12.40;99.90;;;;;;4895649;29;20286;-75
2023/11/15 09:43:54;;;;;;;3.07;0.90;;;12.40;99.90;;;;;;4879060;29;20619;-76
2023/11/15 09:46:23;;;;;;;3.87;1.03;;;12.40;99.90;;;;;;4893181;29;20234;-77
2023/11/15 09:48:54;;;;;;;8.10;0.90;;;12.50;99.90;;;;;;4897128;29;20218;-75
2023/11/15 09:51:24;;;;;;;9.87;1.03;;;12.50;99.90;;;;;;4896173;29;20422;-74
2023/11/15 09:53:53;;;;;;;5.63;0.77;;;12.50;99.90;;;;;;4878064;29;20250;-75
2023/11/15 09:56:21;;;;;;;2.40;0.70;;;12.50;99.90;;;;;;4879562;29;21597;-75
2023/11/15 09:58:49;;;;;;;3.83;0.67;;;12.60;99.90;;;;;;4895626;29;20253;-74
2023/11/15 10:01:16;;;;;;;2.80;0.77;;;12.50;99.90;;;;;;4892817;29;20234;-76
2023/11/15 10:03:43;;;;;;;3.97;0.73;;;12.50;99.90;;;;;;4887415;29;20674;-75
2023/11/15 10:06:10;;;;;;;4.27;0.60;;;12.50;99.90;;;;;;4879509;29;20647;-74
2023/11/15 10:08:53;;;;;;;4.73;1.10;;;12.50;99.90;;;;;;4896273;29;20298;-73
2023/11/15 10:11:21;;;;;;;2.83;0.67;;;12.60;99.90;;;;;;4896904;29;20948;-74
2023/11/15 10:13:51;;;;;;;2.67;0.70;;;12.80;99.90;;;;;;4877909;29;20211;-74
2023/11/15 10:16:23;;;;;;;0.77;0.40;;;12.90;99.90;;;;;;4895574;29;20246;-79
2023/11/15 10:18:51;;;;;;;2.57;0.60;;;12.90;99.90;;;;;;4895620;29;20210;-75
2023/11/15 10:21:19;;;;;;;5.33;0.83;;;12.70;99.90;;;;;;4896818;29;20234;-73
2023/11/15 10:23:47;;;;;;;4.27;0.70;;;12.90;99.90;;;;;;4896130;29;20224;-74
2023/11/15 10:26:16;;;;;;;6.50;0.80;;;13.10;99.90;;;;;;4886559;29;20329;-74
2023/11/15 10:28:44;;;;;;;2.00;0.70;;;13.20;99.90;;;;;;4896543;29;20269;-74
2023/11/15 10:31:14;;;;;;;3.43;0.53;;;13.20;99.90;;;;;;4896081;29;20434;-73
2023/11/15 10:33:43;;;;;;;2.77;0.97;;;13.00;99.90;;;;;;4879693;29;20295;-74
2023/11/15 10:36:16;;;;;;;5.20;0.70;;;13.00;99.90;;;;;;4878758;29;20246;-75
2023/11/15 10:38:44;;;;;;;5.73;0.77;;;13.00;99.90;;;;;;4895643;29;20721;-73
2023/11/15 10:41:17;;;;;;;3.30;0.40;;;13.00;99.90;;;;;;4895972;29;20290;-72
2023/11/15 10:43:48;;;;;;;1.27;0.60;;;13.00;99.90;;;;;;4884877;29;20230;-75
2023/11/15 10:46:16;;;;;;;4.00;0.57;;;13.10;99.90;;;;;;4878580;29;20243;-75
2023/11/15 10:48:46;;;;;;;1.50;0.50;;;13.20;99.90;;;;;;4896240;29;20210;-76
2023/11/15 10:51:20;;;;;;;2.60;0.50;;;13.30;99.90;;;;;;4895491;29;20233;-74
2023/11/15 10:53:48;;;;;;;1.43;0.57;;;13.20;99.90;;;;;;4895377;29;20252;-75
2023/11/15 10:56:19;;;;;;;2.70;0.60;;;13.20;99.90;;;;;;4896033;29;20210;-75
2023/11/15 10:58:48;;;;;;;1.37;0.50;;;13.40;99.90;;;;;;4881430;29;20211;-74
2023/11/15 11:01:16;;;;;;;4.87;0.60;;;13.60;99.90;;;;;;4892256;29;20238;-74
2023/11/15 11:03:46;;;;;;;2.23;0.43;;;13.40;99.90;;;;;;4896103;29;20538;-74
2023/11/15 11:06:20;;;;;;;3.10;0.40;;;13.40;99.90;;;;;;4885701;29;20265;-74
2023/11/15 11:08:55;;;;;;;1.73;0.60;;;13.30;99.90;;;;;;4897329;29;20288;-75
2023/11/15 11:11:30;;;;;;;1.17;0.30;;;13.20;99.90;;;;;;4897200;29;20261;-74
2023/11/15 11:14:16;;;;;;;4.07;0.70;;;13.20;99.90;;;;;;4897654;29;20761;-73
2023/11/15 11:16:44;;;;;;;2.50;0.60;;;13.30;99.90;;;;;;4896322;29;20207;-74
2023/11/15 11:19:16;;;;;;;4.63;1.30;;;13.40;99.90;;;;;;4893500;29;20266;-74
2023/11/15 11:22:07;;;;;;;1.70;0.60;;;13.60;99.90;;;;;;4901305;29;20229;-73
2023/11/15 11:24:38;;;;;;;4.73;0.73;;;13.80;99.90;;;;;;4901338;29;20210;-74
2023/11/15 11:27:31;;;;;;;7.53;0.70;;;13.90;99.90;;;;;;4900963;29;20244;-74
2023/11/15 11:30:19;;;;;;;6.80;0.57;;;13.90;99.90;;;;;;4891179;29;20313;-74
2023/11/15 11:32:47;;;;;;;5.40;0.70;;;13.70;99.90;;;;;;4901041;29;20238;-74
2023/11/15 11:35:30;;;;;;;4.57;0.70;;;13.90;99.90;;;;;;4901366;29;20216;-74
2023/11/15 11:37:59;;;;;;;3.70;1.00;;;14.00;99.90;;;;;;4900744;29;20666;-74
2023/11/15 11:40:31;;;;;;;2.00;0.80;;;14.10;99.90;;;;;;4901873;29;20302;-74
2023/11/15 11:43:15;;;;;;;5.27;0.60;;;14.20;99.90;;;;;;4908009;29;20229;-74
2023/11/15 11:45:44;;;;;;;3.17;0.67;;;14.00;99.90;;;;;;4905386;29;20222;-74
2023/11/15 11:48:18;;;;;;;3.40;0.70;;;13.90;99.90;;;;;;4903295;29;20646;-73
2023/11/15 11:50:53;;;;;;;3.63;0.57;;;13.90;99.90;;;;;;4901204;29;20226;-74
2023/11/15 11:53:21;;;;;;;3.90;0.60;;;13.90;99.90;;;;;;4895140;29;20214;-74
2023/11/15 11:55:50;;;;;;;2.33;0.50;;;13.90;99.90;;;;;;4891869;29;20764;-73
2023/11/15 11:58:18;;;;;;;3.30;0.60;;;13.80;99.90;;;;;;4900736;29;20202;-74
2023/11/15 12:00:45;;;;;;;2.10;0.30;;;13.90;99.90;;;;;;4900807;29;20210;-74
2023/11/15 12:03:12;;;;;;;2.83;0.67;;;13.90;99.90;;;;;;4900644;29;20218;-74
2023/11/15 12:05:39;;;;;;;0.50;0.40;;;14.00;99.90;;;;;;4900829;29;20305;-74
2023/11/15 12:08:05;;;;;;;2.20;0.30;;;13.90;99.90;;;;;;4900596;29;20250;-74
2023/11/15 12:10:33;;;;;;;1.93;0.60;;;13.80;99.90;;;;;;4900530;29;20301;-75
2023/11/15 12:13:10;;;;;;;2.13;0.63;;;13.60;99.90;;;;;;4900695;29;20235;-74
2023/11/15 12:15:39;;;;;;;2.80;0.60;;;13.50;99.90;;;;;;4900463;29;20240;-74
2023/11/15 12:18:07;;;;;;;2.20;0.40;;;13.20;99.90;;;;;;4900429;29;20242;-74
2023/11/15 12:20:36;;;;;;;4.27;0.47;;;13.10;99.90;;;;;;4900848;29;20221;-74
2023/11/15 12:23:04;;;;;;;6.20;0.70;;;12.90;99.90;;;;;;4900134;29;20697;-74
2023/11/15 12:25:32;;;;;;;1.37;0.40;;;12.70;99.90;;;;;;4900221;29;20274;-74
2023/11/15 12:28:01;;;;;;;1.73;0.40;;;12.60;99.90;;;;;;4900117;29;20728;-75
2023/11/15 12:30:32;;;;;;;2.50;0.40;;;12.70;99.90;;;;;;4900331;29;20245;-74
2023/11/15 12:33:02;;;;;;;1.13;0.30;;;12.70;99.90;;;;;;4900209;29;20238;-74
2023/11/15 12:35:31;;;;;;;1.20;0.23;;;12.60;99.90;;;;;;4900164;29;20218;-74
2023/11/15 12:38:04;;;;;;;2.00;0.40;;;12.70;99.90;;;;;;4900263;29;20214;-75
2023/11/15 12:40:31;;;;;;;2.20;0.57;;;12.70;99.90;;;;;;4899839;29;20210;-75
2023/11/15 12:43:13;;;;;;;6.67;0.50;;;12.70;99.90;;;;;;4900200;29;20317;-75
2023/11/15 12:45:40;;;;;;;1.80;0.50;;;12.90;99.90;;;;;;4899481;29;20218;-74
2023/11/15 12:48:09;;;;;;;0.70;0.30;;;13.00;99.90;;;;;;4900344;29;20333;-74
2023/11/15 12:50:40;;;;;;;3.33;0.40;;;13.10;99.90;;;;;;4900113;29;20608;-74
2023/11/15 12:53:09;;;;;;;4.20;0.73;;;13.20;99.90;;;;;;4900378;29;20211;-74
2023/11/15 12:55:45;;;;;;;0.67;0.40;;;13.40;99.90;;;;;;4899943;29;20254;-74
2023/11/15 12:58:12;;;;;;;2.63;0.67;;;13.50;99.90;;;;;;4899969;29;20221;-74
2023/11/15 13:00:40;;;;;;;2.80;0.50;;;13.80;99.90;;;;;;4899765;29;20278;-74
2023/11/15 13:03:19;;;;;;;4.43;0.63;;;13.90;99.90;;;;;;4894199;29;20234;-74
2023/11/15 13:05:47;;;;;;;4.27;0.60;;;13.90;99.90;;;;;;4899427;29;20221;-74
2023/11/15 13:08:14;;;;;;;0.93;0.50;;;13.90;99.90;;;;;;4890362;29;20270;-74
2023/11/15 13:10:41;;;;;;;3.60;0.80;;;13.80;99.90;;;;;;4898135;29;20291;-75
2023/11/15 13:13:11;;;;;;;2.37;0.47;;;13.60;99.90;;;;;;4899420;29;20217;-74
2023/11/15 13:15:38;;;;;;;2.53;0.77;;;13.50;99.90;;;;;;4895160;29;20376;-74
2023/11/15 13:18:05;;;;;;;1.67;0.60;;;13.40;99.90;;;;;;4894227;29;20666;-73
2023/11/15 13:20:36;;;;;;;3.30;1.40;;;13.40;99.90;;;;;;4897762;29;20258;-75
2023/11/15 13:23:04;;;;;;;2.63;0.60;;;13.40;99.90;;;;;;4885390;29;20301;-75
2023/11/15 13:25:31;;;;;;;2.67;0.60;;;13.30;99.90;;;;;;4897718;29;20266;-74
2023/11/15 13:27:58;;;;;;;1.97;0.47;;;13.40;99.90;;;;;;4891611;29;20243;-74
2023/11/15 13:30:27;;;;;;;3.57;0.53;;;13.50;99.90;;;;;;4878306;29;20275;-74
2023/11/15 13:32:55;;;;;;;2.50;0.57;;;13.60;99.90;;;;;;4884989;29;20697;-75
2023/11/15 13:35:21;;;;;;;1.47;0.50;;;13.80;99.90;;;;;;4897542;29;20218;-74
2023/11/15 13:37:50;;;;;;;2.03;0.60;;;14.00;99.90;;;;;;4892506;29;20659;-72
2023/11/15 13:40:19;;;;;;;1.57;0.60;;;13.90;99.90;;;;;;4879044;29;20207;-73
2023/11/15 13:42:46;;;;;;;2.20;0.77;;;13.80;99.90;;;;;;4883463;29;20241;-72
2023/11/15 13:45:16;;;;;;;1.77;0.90;;;13.70;99.90;;;;;;4896761;29;20218;-75
2023/11/15 13:47:43;;;;;;;1.57;0.60;;;13.60;99.90;;;;;;4894174;29;20241;-72
2023/11/15 13:50:11;;;;;;;2.00;0.60;;;13.60;99.90;;;;;;4880031;29;20710;-72
2023/11/15 13:52:39;;;;;;;2.80;0.67;;;13.40;99.90;;;;;;4883891;29;20234;-72
2023/11/15 13:55:09;;;;;;;3.70;0.37;;;13.40;99.90;;;;;;4898728;29;20305;-72
2023/11/15 13:57:37;;;;;;;1.03;0.40;;;13.20;99.90;;;;;;4894774;29;20634;-73
2023/11/15 14:00:07;;;;;;;5.40;0.70;;;13.00;99.90;;;;;;4879530;29;20211;-73
2023/11/15 14:02:34;;;;;;;1.20;0.30;;;12.90;99.90;;;;;;4882833;29;20303;-73
2023/11/15 14:05:05;;;;;;;2.20;0.30;;;12.80;99.90;;;;;;4898478;29;20217;-73
2023/11/15 14:07:32;;;;;;;2.93;0.43;;;12.80;99.90;;;;;;4897671;29;20242;-73
2023/11/15 14:10:00;;;;;;;0.80;0.30;;;12.90;99.90;;;;;;4898347;29;20277;-73
2023/11/15 14:12:28;;;;;;;1.47;0.30;;;12.90;99.90;;;;;;4895237;29;20238;-72
2023/11/15 14:14:56;;;;;;;5.20;0.60;;;13.00;99.90;;;;;;4889157;29;20214;-73
2023/11/15 14:17:23;;;;;;;1.40;0.30;;;12.80;99.90;;;;;;4897788;29;20218;-74
2023/11/15 14:19:50;;;;;;;1.20;0.40;;;12.80;99.90;;;;;;4880795;29;20217;-74
2023/11/15 14:22:18;;;;;;;2.37;0.40;;;12.70;99.90;;;;;;4880646;29;20238;-74
2023/11/15 14:24:45;;;;;;;1.87;0.33;;;12.60;99.90;;;;;;4896824;29;20237;-76
2023/11/15 14:27:15;;;;;;;2.63;0.80;;;12.50;99.90;;;;;;4895684;29;20240;-73
2023/11/15 14:29:43;;;;;;;2.27;0.50;;;12.40;99.90;;;;;;4896563;29;20206;-73
2023/11/15 14:32:15;;;;;;;4.27;0.43;;;12.50;99.90;;;;;;4894628;29;20226;-75
2023/11/15 14:34:42;;;;;;;2.60;0.50;;;12.50;99.90;;;;;;4891770;29;20242;-75
2023/11/15 14:37:10;;;;;;;4.00;0.80;;;12.40;99.90;;;;;;4896764;29;20661;-75
2023/11/15 14:39:37;;;;;;;2.73;0.67;;;12.40;99.90;;;;;;4897466;29;20217;-75
2023/11/15 14:42:05;;;;;;;5.63;2.33;;;12.40;99.90;;;;;;4898285;29;20670;-75
2023/11/15 14:44:32;;;;;;;2.73;0.70;;;12.30;99.90;;;;;;4878562;29;20226;-75
2023/11/15 14:47:00;;;;;;;1.67;0.40;;;12.20;99.90;;;;;;4878686;29;20214;-74
2023/11/15 14:49:28;;;;;;;1.67;0.30;;;12.10;99.90;;;;;;4878101;29;20207;-75
2023/11/15 14:52:07;;;;;;;2.03;0.50;;;12.10;99.90;;;;;;4878633;29;20314;-75
2023/11/15 14:54:40;;;;;;;2.50;0.40;;;12.10;99.90;;;;;;4885050;29;20210;-74
2023/11/15 14:57:07;;;;;;;2.50;0.60;;;12.10;99.90;;;;;;4896988;29;20674;-74
2023/11/15 14:59:34;;;;;;;2.97;0.30;;;12.10;99.90;;;;;;4897115;29;20206;-75
2023/11/15 15:02:03;;;;;;;4.57;0.30;;;12.20;99.90;;;;;;4897225;29;20240;-74
2023/11/15 15:04:33;;;;;;;3.70;0.40;;;12.20;99.90;;;;;;4896721;29;20218;-75
2023/11/15 15:07:00;;;;;;;0.80;0.30;;;12.10;99.90;;;;;;4896311;29;20305;-74
2023/11/15 15:09:27;;;;;;;1.53;0.63;;;11.90;99.90;;;;;;4896502;29;20632;-75
2023/11/15 15:11:57;;;;;;;3.00;0.50;;;11.90;99.90;;;;;;4897090;29;20563;-74
2023/11/15 15:14:23;;;;;;;3.47;0.53;;;11.90;99.90;;;;;;4896774;29;20262;-74
2023/11/15 15:16:50;;;;;;;1.53;0.37;;;11.90;99.90;;;;;;4897085;29;20214;-74
2023/11/15 15:19:22;;;;;;;2.30;0.37;;;11.90;99.90;;;;;;4896884;29;20669;-74
2023/11/15 15:21:49;;;;;;;1.60;0.30;;;11.90;99.90;;;;;;4897120;29;20234;-75
2023/11/15 15:24:16;;;;;;;2.87;0.83;;;11.90;99.90;;;;;;4886832;29;20207;-74
2023/11/15 15:26:43;;;;;;;3.10;0.90;;;11.90;99.90;;;;;;4878983;29;20221;-75
2023/11/15 15:29:11;;;;;;;1.23;0.60;;;12.00;99.90;;;;;;4878879;29;20235;-74
2023/11/15 15:31:38;;;;;;;2.30;0.40;;;12.10;99.90;;;;;;4878591;29;20238;-74
2023/11/15 15:34:05;;;;;;;2.27;0.50;;;12.10;99.90;;;;;;4893816;29;20207;-75
2023/11/15 15:36:34;;;;;;;1.93;0.40;;;12.10;99.90;;;;;;4897110;29;20313;-75
2023/11/15 15:39:01;;;;;;;1.10;0.60;;;12.10;99.90;;;;;;4897267;29;20297;-75
2023/11/15 15:41:28;;;;;;;4.90;1.37;;;12.00;99.90;;;;;;4897599;29;20321;-74
2023/11/15 15:43:55;;;;;;;2.23;0.47;;;12.00;99.90;;;;;;4897224;29;20215;-74
2023/11/15 15:46:22;;;;;;;1.47;0.47;;;11.90;99.90;;;;;;4896956;29;20309;-74
2023/11/15 15:48:50;;;;;;;2.40;0.40;;;11.80;99.90;;;;;;4896804;29;20241;-74
2023/11/15 15:51:18;;;;;;;3.03;0.40;;;11.90;99.90;;;;;;4897268;29;20278;-74
2023/11/15 15:53:46;;;;;;;3.23;0.40;;;11.90;99.90;;;;;;4897511;29;20214;-74
2023/11/15 15:56:14;;;;;;;2.43;0.50;;;11.80;99.90;;;;;;4897413;29;20203;-75
2023/11/15 15:58:40;;;;;;;6.70;3.07;;;11.70;99.90;;;;;;4884726;29;20204;-74
2023/11/15 16:01:08;;;;;;;11.60;6.37;;;11.50;99.90;;;;;;4878713;29;20231;-75
2023/11/15 16:03:35;;;;;;;5.40;3.07;;;11.40;99.90;;;;;;4893008;29;20210;-74
2023/11/15 16:06:04;;;;;;;2.63;0.80;;;11.40;99.90;;;;;;4900687;29;20238;-75
2023/11/15 16:08:31;;;;;;;3.87;1.07;;;11.30;99.90;;;;;;4900157;29;20329;-74
2023/11/15 16:10:59;;;;;;;5.30;1.50;;;11.20;99.90;;;;;;4900301;29;20297;-75
2023/11/15 16:13:27;;;;;;;0.93;0.70;;;11.20;99.90;;;;;;4900126;29;20293;-74
2023/11/15 16:15:54;;;;;;;5.30;0.80;;;11.20;99.90;;;;;;4900208;29;20745;-74
2023/11/15 16:18:21;;;;;;;3.33;0.70;;;11.20;99.90;;;;;;4900055;29;20210;-74
2023/11/15 16:20:47;;;;;;;4.43;2.10;;;11.10;99.90;;;;;;4900281;29;20218;-74
2023/11/15 16:23:14;;;;;;;2.93;0.40;;;11.00;99.90;;;;;;4900275;29;20569;-73
2023/11/15 16:25:40;;;;;;;2.90;0.70;;;11.10;99.90;;;;;;4900360;29;20286;-74
2023/11/15 16:28:08;;;;;;;3.50;0.77;;;11.10;99.90;;;;;;4900391;29;20238;-73
2023/11/15 16:30:35;;;;;;;1.40;0.50;;;11.10;99.90;;;;;;4899504;29;20213;-73
2023/11/15 16:33:02;;;;;;;2.40;1.00;;;11.00;99.90;;;;;;4899674;29;20226;-73
2023/11/15 16:35:30;;;;;;;3.17;1.10;;;10.90;99.90;;;;;;4900065;29;20217;-73
2023/11/15 16:37:57;;;;;;;2.57;1.13;;;10.90;99.90;;;;;;4900000;29;20569;-75
2023/11/15 16:40:24;;;;;;;2.27;0.80;;;10.80;99.90;;;;;;4899992;29;20210;-75
2023/11/15 16:42:52;;;;;;;1.30;0.83;;;10.80;99.90;;;;;;4899554;29;20226;-74
2023/11/15 16:45:20;;;;;;;1.43;1.00;;;10.70;99.90;;;;;;4885510;29;20218;-75
2023/11/15 16:47:47;;;;;;;1.20;0.50;;;10.60;99.90;;;;;;4881307;29;20267;-73
2023/11/15 16:50:15;;;;;;;1.67;0.90;;;10.60;99.90;;;;;;4881530;29;20302;-73
2023/11/15 16:52:42;;;;;;;3.07;1.97;;;10.60;99.90;;;;;;4885650;29;20237;-74
2023/11/15 16:55:12;;;;;;;1.00;0.57;;;10.50;99.90;;;;;;4899666;29;20210;-73
2023/11/15 16:57:39;;;;;;;3.33;1.10;;;10.50;99.90;;;;;;4895288;29;20679;-73
2023/11/15 17:00:08;;;;;;;3.00;0.90;;;10.40;99.90;;;;;;4880976;29;20215;-73
2023/11/15 17:02:37;;;;;;;4.70;1.10;;;10.40;99.90;;;;;;4884427;29;20230;-73
2023/11/15 17:05:04;;;;;;;3.00;0.50;;;10.20;99.90;;;;;;4899541;29;20573;-73
2023/11/15 17:07:32;;;;;;;4.73;1.03;;;10.20;99.90;;;;;;4898944;29;20210;-73
2023/11/15 17:09:58;;;;;;;2.93;0.80;;;10.20;99.90;;;;;;4898814;29;20258;-73
2023/11/15 17:12:26;;;;;;;1.37;0.50;;;10.20;99.90;;;;;;4898506;29;21881;-72
2023/11/15 17:14:55;;;;;;;4.20;0.70;;;10.20;99.90;;;;;;4889786;29;20207;-73
2023/11/15 17:17:22;;;;;;;2.70;0.80;;;10.10;99.90;;;;;;4880252;29;20230;-72
2023/11/15 17:19:50;;;;;;;3.47;1.20;;;10.10;99.90;;;;;;4880532;29;20214;-73
2023/11/15 17:22:17;;;;;;;1.67;0.90;;;10.00;99.90;;;;;;4881690;29;20255;-73
2023/11/15 17:24:44;;;;;;;2.17;0.60;;;10.00;99.90;;;;;;4898641;29;20206;-73
2023/11/15 17:27:12;;;;;;;1.10;0.60;;;10.00;99.90;;;;;;4899391;29;20313;-73
2023/11/15 17:29:39;;;;;;;1.30;0.60;;;9.90;99.90;;;;;;4898890;29;20239;-73
2023/11/15 17:32:07;;;;;;;2.43;0.77;;;9.90;99.90;;;;;;4898632;29;20234;-73
2023/11/15 17:34:34;;;;;;;1.37;0.60;;;10.00;99.90;;;;;;4898574;29;20288;-73
2023/11/15 17:37:02;;;;;;;2.63;1.20;;;10.00;99.90;;;;;;4898635;29;20305;-73
2023/11/15 17:39:29;;;;;;;2.40;0.90;;;9.90;99.90;;;;;;4898935;29;20301;-74
2023/11/15 17:41:56;;;;;;;6.53;1.10;;;9.90;99.90;;;;;;4898821;29;20736;-73
2023/11/15 17:44:22;;;;;;;3.83;1.03;;;9.80;99.90;;;;;;4898390;29;20229;-73
2023/11/15 17:46:50;;;;;;;3.87;1.00;;;9.80;99.90;;;;;;4898230;29;20300;-73
2023/11/15 17:49:16;;;;;;;4.17;1.40;;;9.80;99.90;;;;;;4898725;29;20235;-73
2023/11/15 17:51:45;;;;;;;2.20;0.90;;;9.70;99.90;;;;;;4898566;29;20241;-73
2023/11/15 17:54:14;;;;;;;5.97;1.30;;;9.70;99.90;;;;;;4898396;29;20689;-73
2023/11/15 17:56:41;;;;;;;2.50;1.00;;;9.60;99.90;;;;;;4898714;29;20302;-74
2023/11/15 17:59:08;;;;;;;5.03;1.30;;;9.60;99.90;;;;;;4882844;29;20208;-73
2023/11/15 18:01:38;;;;;;;2.03;1.00;;;9.60;99.90;;;;;;4879706;29;20237;-73
2023/11/15 18:04:05;;;;;;;7.33;1.30;;;9.50;99.90;;;;;;4894416;29;20218;-73
2023/11/15 18:06:32;;;;;;;1.97;0.77;;;9.60;99.90;;;;;;4879363;29;20215;-74
2023/11/15 18:08:59;;;;;;;3.97;1.37;;;9.50;99.90;;;;;;4879648;29;20239;-73
2023/11/15 18:11:28;;;;;;;3.17;1.20;;;9.50;99.90;;;;;;4879185;29;20590;-74
2023/11/15 18:13:55;;;;;;;3.30;1.10;;;9.40;99.90;;;;;;4893622;29;20210;-74
2023/11/15 18:16:21;;;;;;;2.80;0.93;;;9.40;99.90;;;;;;4897852;29;20232;-74
2023/11/15 18:18:49;;;;;;;3.63;1.03;;;9.40;99.90;;;;;;4898187;29;20216;-74
2023/11/15 18:21:16;;;;;;;7.27;1.40;;;9.50;99.90;;;;;;4897559;29;20241;-74
2023/11/15 18:23:44;;;;;;;2.67;1.60;;;9.40;99.90;;;;;;4897467;29;20570;-74
2023/11/15 18:26:10;;;;;;;5.33;1.40;;;9.40;99.90;;;;;;4898377;29;20268;-73
2023/11/15 18:28:40;;;;;;;5.33;2.00;;;9.40;99.90;;;;;;4897564;29;20245;-75
2023/11/15 18:31:07;;;;;;;3.73;1.27;;;9.30;99.90;;;;;;4886032;29;20233;-73
2023/11/15 18:33:37;;;;;;;6.27;1.20;;;9.30;99.90;;;;;;4897079;29;20569;-73
2023/11/15 18:36:04;;;;;;;3.53;0.97;;;9.30;99.90;;;;;;4897846;29;20220;-73
2023/11/15 18:38:31;;;;;;;7.10;1.40;;;9.30;99.90;;;;;;4897214;29;20700;-73
2023/11/15 18:40:58;;;;;;;4.17;1.10;;;9.30;99.90;;;;;;4886827;29;20217;-74
2023/11/15 18:43:25;;;;;;;7.60;1.70;;;9.30;99.90;;;;;;4897027;29;20607;-74
2023/11/15 18:45:53;;;;;;;3.87;1.20;;;9.30;99.90;;;;;;4884063;29;20677;-74
2023/11/15 18:48:22;;;;;;;4.10;1.77;;;9.30;99.90;;;;;;4896906;29;20217;-73
2023/11/15 18:50:49;;;;;;;4.07;1.80;;;9.30;99.90;;;;;;4886876;29;20268;-73
2023/11/15 18:53:16;;;;;;;2.33;1.00;;;9.20;99.90;;;;;;4896147;29;20300;-74
2023/11/15 18:55:43;;;;;;;7.97;1.53;;;9.20;99.90;;;;;;4888658;29;20211;-73
2023/11/15 18:58:10;;;;;;;5.40;1.20;;;9.20;99.90;;;;;;4896151;29;20211;-73
2023/11/15 19:00:37;;;;;;;5.87;1.40;;;9.20;99.90;;;;;;4888921;29;20214;-73
2023/11/15 19:03:06;;;;;;;4.97;1.80;;;9.20;99.90;;;;;;4890921;29;20232;-73
2023/11/15 19:05:33;;;;;;;5.10;1.40;;;9.10;99.90;;;;;;4896952;29;20220;-73
2023/11/15 19:08:01;;;;;;;5.00;1.70;;;9.10;99.90;;;;;;4895956;29;20578;-73
2023/11/15 19:10:29;;;;;;;3.77;1.23;;;9.10;99.90;;;;;;4889004;29;20239;-73
2023/11/15 19:12:56;;;;;;;3.37;1.20;;;9.10;99.90;;;;;;4893115;29;20222;-73
2023/11/15 19:15:23;;;;;;;4.83;1.13;;;9.10;99.90;;;;;;4890402;29;20218;-73
2023/11/15 19:17:50;;;;;;;6.17;0.90;;;9.00;99.90;;;;;;4891124;29;20210;-73
2023/11/15 19:20:19;;;;;;;4.27;0.70;;;9.10;99.90;;;;;;4889384;29;20246;-74
2023/11/15 19:22:46;;;;;;;7.07;1.70;;;9.00;99.90;;;;;;4894056;29;20258;-73
2023/11/15 19:25:14;;;;;;;8.07;1.63;;;9.00;99.90;;;;;;4888515;29;20276;-73
2023/11/15 19:27:41;;;;;;;2.83;1.43;;;9.00;99.90;;;;;;4894309;29;20273;-73
2023/11/15 19:30:09;;;;;;;3.00;1.40;;;8.90;99.90;;;;;;4891151;29;20258;-73
2023/11/15 19:32:36;;;;;;;5.70;2.00;;;8.90;99.90;;;;;;4896215;29;20313;-73
2023/11/15 19:35:07;;;;;;;14.00;4.13;;;8.80;99.90;;;;;;4892818;29;20238;-74
2023/11/15 19:37:37;;;;;;;5.87;1.50;;;8.90;99.90;;;;;;4892881;29;20570;-72
2023/11/15 19:40:08;;;;;;;4.53;1.53;;;8.90;99.90;;;;;;4900143;29;20578;-73
2023/11/15 19:42:35;;;;;;;4.10;1.83;;;8.90;99.90;;;;;;4898749;29;20226;-74
2023/11/15 19:45:04;;;;;;;13.73;2.00;;;9.00;99.90;;;;;;4900027;29;20222;-73
2023/11/15 19:47:30;;;;;;;5.03;1.90;;;9.00;99.90;;;;;;4888088;29;20269;-73
2023/11/15 19:49:58;;;;;;;5.63;0.93;;;9.00;99.90;;;;;;4901105;29;20236;-75
2023/11/15 19:52:25;;;;;;;5.03;1.30;;;9.00;99.90;;;;;;4906515;29;20234;-73
2023/11/15 19:54:53;;;;;;;2.03;1.10;;;8.90;99.90;;;;;;4905747;29;20281;-74
2023/11/15 19:57:20;;;;;;;5.47;1.00;;;8.90;99.90;;;;;;4909183;29;20301;-74
2023/11/15 19:59:48;;;;;;;10.13;2.63;;;9.00;99.90;;;;;;4903768;29;20214;-74
2023/11/15 20:02:15;;;;;;;2.13;0.87;;;8.80;99.90;;;;;;4895559;29;20242;-74
2023/11/15 20:04:42;;;;;;;5.40;1.33;;;8.80;99.90;;;;;;4894038;29;20316;-73
2023/11/15 20:07:09;;;;;;;3.17;0.90;;;8.80;99.90;;;;;;4899786;29;20221;-74
2023/11/15 20:09:37;;;;;;;2.57;0.97;;;8.70;99.90;;;;;;4899558;29;20717;-73
2023/11/15 20:12:06;;;;;;;2.53;1.10;;;8.70;99.90;;;;;;4899260;29;20230;-74
2023/11/15 20:14:33;;;;;;;5.30;0.93;;;8.80;99.90;;;;;;4895870;29;20550;-74
2023/11/15 20:17:00;;;;;;;5.73;1.17;;;8.80;99.90;;;;;;4899976;29;20276;-74
2023/11/15 20:19:27;;;;;;;9.00;1.20;;;8.80;99.90;;;;;;4900333;29;20214;-73
2023/11/15 20:21:54;;;;;;;3.50;1.10;;;8.80;99.90;;;;;;4899846;29;20230;-74
2023/11/15 20:24:21;;;;;;;4.00;0.80;;;8.70;99.90;;;;;;4899892;29;20238;-74
2023/11/15 20:26:49;;;;;;;6.10;1.07;;;8.70;99.90;;;;;;4894445;29;20677;-73
2023/11/15 20:29:18;;;;;;;3.63;0.90;;;8.70;99.90;;;;;;4898053;29;20321;-73
2023/11/15 20:31:45;;;;;;;7.03;1.13;;;8.60;99.90;;;;;;4890134;29;20230;-73
2023/11/15 20:34:12;;;;;;;6.03;1.23;;;8.60;99.90;;;;;;4899478;29;20305;-74
2023/11/15 20:36:39;;;;;;;2.43;0.90;;;8.60;99.90;;;;;;4899448;29;20665;-73
2023/11/15 20:39:11;;;;;;;3.47;2.00;;;8.60;99.90;;;;;;4895302;29;20233;-73
2023/11/15 20:41:38;;;;;;;4.53;1.03;;;8.60;99.90;;;;;;4907510;23;20228;-72
2023/11/15 20:44:07;;;;;;;4.67;1.47;;;8.50;99.90;;;;;;4919336;29;20265;-72
2023/11/15 20:46:36;;;;;;;3.27;1.37;;;8.60;99.90;;;;;;4916644;29;20210;-75
2023/11/15 20:49:06;;;;;;;3.27;1.60;;;8.60;99.90;;;;;;4918254;29;20236;-74
2023/11/15 20:51:33;;;;;;;7.50;1.20;;;8.50;99.90;;;;;;4918483;29;20241;-75
2023/11/15 20:54:00;;;;;;;3.37;1.20;;;8.50;99.90;;;;;;4930796;29;20209;-73
2023/11/15 20:56:26;;;;;;;4.20;1.33;;;8.60;99.90;;;;;;4918447;29;20213;-76
2023/11/15 20:58:53;;;;;;;4.23;1.10;;;8.50;99.90;;;;;;4917906;29;20664;-74
2023/11/15 21:01:21;;;;;;;2.47;1.23;;;8.50;99.90;;;;;;4917769;29;20230;-73
2023/11/15 21:03:50;;;;;;;5.20;1.10;;;8.50;99.90;;;;;;4917253;29;20205;-73
2023/11/15 21:06:18;;;;;;;3.80;1.10;;;8.30;99.90;;;;;;4918032;29;20670;-73
2023/11/15 21:08:45;;;;;;;3.73;1.27;;;8.40;99.90;;;;;;4918006;29;20569;-74
2023/11/15 21:11:13;;;;;;;4.67;1.20;;;8.50;99.90;;;;;;4917667;29;20234;-73
2023/11/15 21:13:42;;;;;;;4.50;1.43;;;8.40;99.90;;;;;;4917856;29;20220;-74
2023/11/15 21:16:11;;;;;;;3.57;1.30;;;8.30;99.90;;;;;;4916902;29;20303;-74
2023/11/15 21:18:39;;;;;;;5.03;1.13;;;8.30;99.90;;;;;;4917415;29;20297;-72
2023/11/15 21:21:09;;;;;;;6.57;1.30;;;8.20;99.90;;;;;;4920313;29;20642;-72
2023/11/15 21:23:36;;;;;;;2.87;1.20;;;8.20;99.90;;;;;;4918070;29;20628;-73
2023/11/15 21:26:05;;;;;;;4.27;1.20;;;8.20;99.90;;;;;;4917666;29;20266;-73
2023/11/15 21:28:32;;;;;;;7.23;1.70;;;8.20;99.90;;;;;;4920127;29;20296;-72
2023/11/15 21:31:00;;;;;;;4.90;1.20;;;8.00;99.90;;;;;;4923285;29;20234;-73
2023/11/15 21:33:27;;;;;;;5.43;1.60;;;8.10;99.90;;;;;;4923349;29;20211;-72
2023/11/15 21:35:54;;;;;;;2.83;1.00;;;8.10;99.90;;;;;;4922515;29;20264;-73
2023/11/15 21:38:22;;;;;;;4.10;1.57;;;8.20;99.90;;;;;;4919929;29;20202;-73
2023/11/15 21:40:49;;;;;;;6.93;1.33;;;8.10;99.90;;;;;;4917027;29;20269;-74